Terminal Aerodrome Forecast
Issued by NWS

Home | Current Version | Previous Version | Text Only | Print | Product List | Glossary Off
Versions: 1 2 3 4 5 6 7 8 9 10 11 12 13 14 15 16 17 18 19 20 21 22 23 24 25 26 27 28

000
FTUS43 KLOT 241120
TAFDPA
TAF
KDPA 241120Z 2412/2512 04008KT 5SM BR VCSH FEW004 SCT006 OVC060
     FM241300 03008KT 5SM BR VCSH SCT004 OVC006
     FM241500 03010KT P6SM SCT009 BKN012 OVC050
     FM241800 02012G20KT P6SM SCT009 SCT020 BKN050
     FM250100 36010KT P6SM VCSH SCT007 SCT015 BKN030
     FM250400 35009KT P6SM SCT007 SCT015 BKN030=

USA.gov is the U.S. government's official web portal to all federal, state and local government web resources and services.